Masset current weather conditions

sailwx.info

Wind from 340 at 13 knots gusting 20

Air temperature 4.0° C
Visibility: greater than 13.0 NM
Dewpoint -2.0° C

Last reported at 2017-Feb-24 02:00 UTC.
Time now 2017-Feb-24 08:10 UTC

Location: N 54°02' W 132°08'.
View on Google Maps.

See reports from other nearby stations

  
Tides and Currents Weather Stations Pressure Air Temp Water Temp Dewpoint Dewpoint Depression Visibility Wind Speed Wind Dir Waves Ship Positions
date/time (UTC)wind fromknots sea level pressurealtimeterstation pressurevisibilityair tempwater tempwave heightnotes
2017-Feb-24 02:00 340 13 gusting 20 13.0 4.0
2017-Feb-24 01:22 340 14 gusting 20 13.0 4.0
2017-Feb-24 01:00 340 14 gusting 20 13.0 4.0 Light rain showers. Ice pellets.
2017-Feb-24 00:48 340 13 gusting 22 13.0 4.0 Light rain showers. Ice pellets.
2017-Feb-24 00:41 340 18 gusting 22 13.0 4.0 Light rain showers.
2017-Feb-24 00:23 340 13 gusting 20 13.0 4.0
2017-Feb-24 00:00 340 14 gusting 22 13.0 4.0 Light rain showers.
2017-Feb-23 23:47 340 17 gusting 24 13.0 4.0 Light rain showers.
2017-Feb-23 23:31 340 17 gusting 24 13.0 3.0
2017-Feb-23 23:13 340 11 gusting 20 13.0 3.0 Light rain showers.
2017-Feb-23 23:00 340 18 gusting 27 13.0 5.0
2017-Feb-23 22:00 340 13 13.0 4.0
2017-Feb-23 21:51 340 13 13.0 5.0
2017-Feb-23 21:34 330 14 13.0 4.0 Light rain showers.
2017-Feb-23 21:20 320 14 13.0 4.0 Light rain showers. Ice pellets.
2017-Feb-23 21:00 320 14 gusting 20 13.0 5.0
2017-Feb-23 20:00 330 14 13.0 4.0
2017-Feb-23 19:00 340 13 gusting 18 13.0 4.0
2017-Feb-23 18:37 330 13 13.0 3.0
2017-Feb-23 18:16 290 4 13.0 3.0
2017-Feb-23 18:00 280 4 13.0 2.0
2017-Feb-23 17:49 270 4 13.0 2.0 Light rain.
2017-Feb-23 17:00 290 4 13.0 2.0
2017-Feb-23 16:16 290 6 13.0 2.0
2017-Feb-23 16:00 270 6 13.0 2.0 Light rain showers. Ice pellets.
2017-Feb-23 15:55 290 5 13.0 2.0 Light rain showers. Ice pellets.
2017-Feb-23 15:49 290 7 13.0 2.0
2017-Feb-23 15:12 280 6 13.0 1.0
2017-Feb-23 15:00 280 6 13.0 2.0 Ice pellets.
2017-Feb-23 02:00 300 5 13.0 2.0
2017-Feb-23 01:00 320 9 13.0 4.0
2017-Feb-23 00:00 330 11 13.0 5.0
2017-Feb-22 23:00 330 11 13.0 5.0
2017-Feb-22 22:00 330 9 13.0 5.0
2017-Feb-22 21:00 330 7 13.0 5.0
2017-Feb-22 20:55 340 8 13.0 5.0
2017-Feb-22 20:00 340 8 13.0 4.0
2017-Feb-22 19:36 340 7 13.0 4.0
2017-Feb-22 19:00 310 6 13.0 4.0
2017-Feb-22 18:00 290 4 13.0 2.0
2017-Feb-22 17:00 13.0-0.0
2017-Feb-22 16:00 13.0-2.0
2017-Feb-22 15:00 13.0-1.0